createdAt,value
2022-11-12T00:00:12.694Z,12.10
2022-11-12T00:02:58.893Z,12.16
2022-11-12T00:05:44.736Z,12.24
2022-11-12T00:08:30.476Z,12.28
2022-11-12T00:11:16.417Z,12.32
2022-11-12T00:14:01.265Z,11.98
2022-11-12T00:16:46.632Z,11.95
2022-11-12T00:19:31.885Z,12.00
2022-11-12T00:22:17.339Z,12.06
2022-11-12T00:25:03.686Z,12.08
2022-11-12T00:27:48.858Z,11.89
2022-11-12T00:30:36.646Z,11.90
2022-11-12T00:33:22.074Z,11.86
2022-11-12T00:36:08.127Z,11.78
2022-11-12T00:38:53.505Z,11.83
2022-11-12T00:41:38.835Z,11.64
2022-11-12T00:44:24.391Z,11.59
2022-11-12T00:47:09.687Z,11.53
2022-11-12T00:49:55.066Z,11.48
2022-11-12T00:52:40.682Z,11.67
2022-11-12T00:55:26.061Z,11.66
2022-11-12T00:58:11.646Z,11.64
2022-11-12T01:00:57.305Z,11.51
2022-11-12T01:03:43.706Z,11.35
2022-11-12T01:06:29.407Z,11.25
2022-11-12T01:09:14.765Z,11.26
2022-11-12T01:12:00.123Z,11.23
2022-11-12T01:14:45.610Z,11.28
2022-11-12T01:17:31.974Z,11.30
2022-11-12T01:20:17.459Z,11.13
2022-11-12T01:23:02.715Z,11.15
2022-11-12T01:25:49.053Z,11.25
2022-11-12T01:28:35.247Z,11.25
2022-11-12T01:31:24.848Z,11.11
2022-11-12T01:34:10.574Z,11.05
2022-11-12T01:36:55.996Z,11.23
2022-11-12T01:39:41.261Z,11.32
2022-11-12T01:42:30.411Z,11.35
2022-11-12T01:45:16.056Z,11.40
2022-11-12T01:48:02.844Z,11.38
2022-11-12T01:50:48.206Z,11.34
2022-11-12T01:53:42.284Z,11.36
2022-11-12T01:56:31.321Z,11.44
2022-11-12T01:59:33.654Z,11.54
2022-11-12T02:02:19.078Z,11.56
2022-11-12T02:05:08.569Z,11.64
2022-11-12T02:07:54.886Z,11.69
2022-11-12T02:10:40.995Z,11.61
2022-11-12T02:13:44.832Z,11.62
2022-11-12T02:16:41.210Z,11.47
2022-11-12T02:19:26.950Z,11.34
2022-11-12T02:22:12.630Z,11.47
2022-11-12T02:24:57.922Z,11.55
2022-11-12T02:27:44.528Z,11.47
2022-11-12T02:30:36.595Z,11.20
2022-11-12T02:33:21.718Z,11.12
2022-11-12T02:36:07.075Z,11.05
2022-11-12T02:38:52.797Z,11.11
2022-11-12T02:41:40.959Z,11.10
2022-11-12T02:44:26.809Z,11.08
2022-11-12T02:47:12.645Z,10.90
2022-11-12T02:49:57.977Z,11.04
2022-11-12T02:52:43.607Z,11.20
2022-11-12T02:55:29.389Z,11.25
2022-11-12T02:58:14.983Z,11.26
2022-11-12T03:01:00.751Z,11.34
2022-11-12T03:03:45.989Z,11.33
2022-11-12T03:06:31.319Z,11.37
2022-11-12T03:09:16.651Z,11.32
2022-11-12T03:12:01.934Z,11.30
2022-11-12T03:14:47.400Z,11.39
2022-11-12T03:17:34.820Z,11.38
2022-11-12T03:20:20.659Z,11.16
2022-11-12T03:23:08.676Z,10.91
2022-11-12T03:25:54.096Z,10.87
2022-11-12T03:28:39.184Z,10.56
2022-11-12T03:31:24.789Z,10.68
2022-11-12T03:34:11.880Z,10.83
2022-11-12T03:36:57.204Z,10.97
2022-11-12T03:39:42.658Z,10.78
2022-11-12T03:42:27.939Z,10.83
2022-11-12T03:45:13.402Z,10.92
2022-11-12T03:47:59.030Z,11.07
2022-11-12T03:50:44.515Z,11.06
2022-11-12T03:53:29.694Z,11.14
2022-11-12T03:56:14.994Z,11.17
2022-11-12T03:59:00.299Z,10.94
2022-11-12T04:01:45.621Z,10.84
2022-11-12T04:04:50.915Z,10.93
2022-11-12T04:07:55.010Z,10.88
2022-11-12T04:10:40.547Z,10.84
2022-11-12T04:13:29.205Z,10.80
2022-11-12T04:16:38.445Z,10.74
2022-11-12T04:19:42.296Z,10.76
2022-11-12T04:22:27.483Z,10.72
2022-11-12T04:25:41.868Z,10.59
2022-11-12T04:28:27.678Z,10.58
2022-11-12T04:31:13.057Z,10.61
2022-11-12T04:34:18.505Z,10.58
2022-11-12T04:37:05.564Z,10.55
2022-11-12T04:39:51.950Z,10.60
2022-11-12T04:42:56.193Z,10.68
2022-11-12T04:45:43.880Z,10.79
2022-11-12T04:48:30.126Z,10.90
2022-11-12T04:51:34.642Z,11.00
2022-11-12T04:54:19.680Z,10.87
2022-11-12T04:57:05.025Z,10.71
2022-11-12T04:59:50.549Z,10.56
2022-11-12T05:02:36.439Z,10.51
2022-11-12T05:05:21.780Z,10.43
2022-11-12T05:08:07.209Z,10.48
2022-11-12T05:10:52.404Z,10.53
2022-11-12T05:13:37.895Z,10.52
2022-11-12T05:16:23.068Z,10.59
2022-11-12T05:19:08.510Z,10.68
2022-11-12T05:22:06.354Z,10.75
2022-11-12T05:24:52.284Z,10.91
2022-11-12T05:27:37.994Z,11.04
2022-11-12T05:30:23.393Z,10.96
2022-11-12T05:33:08.964Z,10.97
2022-11-12T05:35:56.763Z,10.90
2022-11-12T05:38:42.201Z,10.89
2022-11-12T05:41:32.862Z,10.96
2022-11-12T05:44:30.754Z,10.83
2022-11-12T05:47:16.736Z,10.81
2022-11-12T05:50:02.177Z,10.96
2022-11-12T05:52:47.652Z,11.15
2022-11-12T05:55:37.097Z,11.11
2022-11-12T05:58:22.539Z,10.93
2022-11-12T06:01:08.200Z,10.88
2022-11-12T06:03:53.499Z,10.99
2022-11-12T06:06:39.686Z,11.00
2022-11-12T06:09:25.177Z,10.91
2022-11-12T06:12:10.467Z,11.01
2022-11-12T06:14:55.792Z,10.90
2022-11-12T06:17:42.581Z,10.96
2022-11-12T06:20:28.119Z,10.98
2022-11-12T06:23:13.455Z,10.99
2022-11-12T06:25:58.995Z,11.08
2022-11-12T06:28:44.780Z,11.09
2022-11-12T06:31:30.632Z,11.19
2022-11-12T06:34:16.010Z,11.21
2022-11-12T06:37:01.105Z,11.13
2022-11-12T06:39:46.549Z,11.14
2022-11-12T06:42:31.810Z,11.14
2022-11-12T06:45:17.242Z,11.10
2022-11-12T06:48:02.573Z,11.13
2022-11-12T06:50:48.003Z,11.00
2022-11-12T06:53:33.457Z,10.93
2022-11-12T06:56:19.998Z,10.95
2022-11-12T06:59:05.358Z,11.01
2022-11-12T07:01:50.947Z,11.09
2022-11-12T07:04:36.630Z,11.14
2022-11-12T07:07:22.016Z,11.04
2022-11-12T07:10:07.902Z,10.97
2022-11-12T07:12:54.209Z,11.11
2022-11-12T07:15:39.577Z,11.14
2022-11-12T07:18:25.108Z,11.16
2022-11-12T07:21:14.373Z,11.18
2022-11-12T07:23:59.772Z,11.23
2022-11-12T07:26:47.615Z,11.30
2022-11-12T07:29:47.043Z,11.41
2022-11-12T07:32:36.196Z,11.39
2022-11-12T07:35:24.174Z,11.51
2022-11-12T07:38:09.484Z,11.59
2022-11-12T07:41:03.104Z,11.70
2022-11-12T07:43:49.549Z,11.78
2022-11-12T07:46:34.889Z,11.80
2022-11-12T07:49:20.338Z,11.83
2022-11-12T07:52:05.740Z,11.87
2022-11-12T07:54:51.375Z,12.00
2022-11-12T07:57:36.664Z,12.02
2022-11-12T08:00:21.999Z,12.11
2022-11-12T08:03:07.445Z,12.10
2022-11-12T08:05:52.921Z,12.17
2022-11-12T08:08:38.316Z,12.19
2022-11-12T08:11:24.328Z,12.22
2022-11-12T08:14:10.781Z,12.33
2022-11-12T08:16:56.419Z,12.38
2022-11-12T08:19:41.940Z,12.46
2022-11-12T08:22:27.330Z,12.52
2022-11-12T08:25:12.720Z,12.57
2022-11-12T08:27:59.982Z,12.73
2022-11-12T08:30:45.428Z,12.76
2022-11-12T08:33:31.008Z,12.88
2022-11-12T08:36:17.549Z,12.96
2022-11-12T08:39:02.988Z,13.00
2022-11-12T08:41:48.204Z,12.99
2022-11-12T08:44:34.030Z,13.08
2022-11-12T08:47:19.882Z,13.08
2022-11-12T08:50:05.696Z,13.10
2022-11-12T08:52:51.252Z,13.11
2022-11-12T08:55:37.062Z,13.13
2022-11-12T08:58:23.960Z,13.13
2022-11-12T09:01:09.638Z,13.19
2022-11-12T09:03:55.515Z,13.19
2022-11-12T09:06:40.762Z,13.22
2022-11-12T09:09:25.988Z,13.23
2022-11-12T09:12:19.638Z,13.18
2022-11-12T09:15:36.240Z,13.13
2022-11-12T09:18:15.174Z,13.19
2022-11-12T09:21:04.817Z,13.19
2022-11-12T09:23:50.032Z,13.19
2022-11-12T09:26:35.722Z,13.29
2022-11-12T09:29:21.138Z,13.34
2022-11-12T09:32:06.551Z,13.34
2022-11-12T09:34:52.006Z,13.32
2022-11-12T09:37:38.349Z,13.41
2022-11-12T09:40:37.636Z,13.46
2022-11-12T09:43:34.517Z,13.58
2022-11-12T09:46:29.520Z,13.61
2022-11-12T09:49:19.120Z,13.63
2022-11-12T09:52:21.553Z,13.76
2022-11-12T09:55:34.935Z,13.84
2022-11-12T09:58:20.612Z,13.90
2022-11-12T10:01:38.854Z,13.97
2022-11-12T10:04:43.631Z,14.02
2022-11-12T10:07:49.022Z,14.04
2022-11-12T10:10:54.827Z,14.09
2022-11-12T10:14:19.559Z,14.16
2022-11-12T10:17:18.670Z,14.22
2022-11-12T10:20:20.846Z,14.22
2022-11-12T10:23:17.616Z,14.26
2022-11-12T10:26:12.772Z,14.29
2022-11-12T10:29:26.126Z,14.35
2022-11-12T10:32:15.739Z,14.38
2022-11-12T10:35:01.094Z,14.39
2022-11-12T10:38:04.669Z,14.44
2022-11-12T10:40:49.770Z,14.51
2022-11-12T10:43:35.321Z,14.54
2022-11-12T10:46:24.015Z,14.57
2022-11-12T10:49:16.160Z,14.57
2022-11-12T10:52:01.242Z,14.53
2022-11-12T10:54:50.975Z,14.57
2022-11-12T10:57:39.507Z,14.57
2022-11-12T11:00:26.404Z,14.56
2022-11-12T11:03:22.519Z,14.57
2022-11-12T11:06:14.097Z,14.62
2022-11-12T11:09:20.744Z,14.62
2022-11-12T11:12:29.711Z,14.67
2022-11-12T11:15:21.824Z,14.78
2022-11-12T11:18:11.890Z,14.87
2022-11-12T11:21:07.051Z,14.91
2022-11-12T11:24:26.696Z,15.06
2022-11-12T11:27:31.208Z,15.09
2022-11-12T11:30:19.730Z,15.08
2022-11-12T11:33:25.827Z,15.05
2022-11-12T11:36:26.339Z,15.01
2022-11-12T11:39:25.521Z,14.99
2022-11-12T11:42:40.854Z,14.98
2022-11-12T11:45:35.587Z,14.99
2022-11-12T11:48:53.216Z,14.99
2022-11-12T11:52:10.783Z,14.92
2022-11-12T11:54:59.662Z,14.93
2022-11-12T11:57:57.597Z,14.97
2022-11-12T12:00:43.108Z,15.02
2022-11-12T12:04:03.531Z,15.11
2022-11-12T12:07:21.036Z,15.22
2022-11-12T12:10:46.296Z,15.23
2022-11-12T12:13:47.326Z,15.21
2022-11-12T12:17:03.071Z,15.12
2022-11-12T12:20:14.882Z,15.07
2022-11-12T12:23:06.238Z,15.00
2022-11-12T12:25:59.028Z,14.98
2022-11-12T12:28:57.840Z,14.97
2022-11-12T12:31:52.811Z,14.94
2022-11-12T12:34:59.555Z,14.99
2022-11-12T12:37:53.956Z,15.04
2022-11-12T12:40:47.254Z,15.04
2022-11-12T12:43:37.244Z,15.00
2022-11-12T12:46:29.321Z,14.99
2022-11-12T12:49:19.045Z,15.05
2022-11-12T12:52:04.679Z,15.13
2022-11-12T12:54:56.658Z,15.13
2022-11-12T12:57:42.196Z,15.08
2022-11-12T13:00:48.046Z,15.09
2022-11-12T13:03:43.007Z,15.10
2022-11-12T13:06:40.279Z,15.10
2022-11-12T13:09:27.050Z,15.08
2022-11-12T13:12:12.682Z,15.19
2022-11-12T13:15:14.701Z,15.12
2022-11-12T13:17:59.755Z,15.11
2022-11-12T13:21:31.102Z,15.07
2022-11-12T13:24:16.847Z,15.06
2022-11-12T13:27:02.479Z,15.16
2022-11-12T13:29:48.143Z,15.19
2022-11-12T13:32:36.602Z,15.19
2022-11-12T13:35:26.262Z,15.20
2022-11-12T13:38:16.016Z,15.17
2022-11-12T13:41:09.786Z,15.15
2022-11-12T13:43:56.757Z,15.15
2022-11-12T13:46:43.849Z,15.11
2022-11-12T13:49:30.401Z,15.10
2022-11-12T13:52:18.921Z,15.05
2022-11-12T13:55:07.141Z,15.04
2022-11-12T13:57:53.908Z,15.08
2022-11-12T14:00:40.062Z,15.05
2022-11-12T14:03:29.906Z,14.95
2022-11-12T14:06:43.058Z,15.08
2022-11-12T14:09:40.901Z,15.08
2022-11-12T14:12:29.564Z,15.06
2022-11-12T14:20:02.620Z,15.00
2022-11-12T14:22:48.579Z,14.93
2022-11-12T14:25:34.353Z,14.83
2022-11-12T14:28:34.757Z,14.84
2022-11-12T14:31:24.470Z,14.86
2022-11-12T14:34:21.641Z,14.75
2022-11-12T14:37:37.197Z,14.72
2022-11-12T14:40:27.718Z,14.69
2022-11-12T14:43:38.224Z,14.64
2022-11-12T14:46:30.729Z,14.64
2022-11-12T14:49:29.853Z,14.67
2022-11-12T14:52:22.801Z,14.74
2022-11-12T14:55:17.606Z,14.80
2022-11-12T14:58:04.865Z,14.78
2022-11-12T15:00:52.902Z,14.67
2022-11-12T15:03:38.714Z,14.61
2022-11-12T15:06:31.010Z,14.68
2022-11-12T15:09:19.088Z,14.67
2022-11-12T15:12:14.564Z,14.68
2022-11-12T15:15:18.927Z,14.61
2022-11-12T15:18:26.359Z,14.60
2022-11-12T15:21:11.983Z,14.60
2022-11-12T15:24:27.303Z,14.58
2022-11-12T15:27:38.582Z,14.49
2022-11-12T15:30:28.377Z,14.59
2022-11-12T15:33:14.001Z,14.58
2022-11-12T15:36:01.906Z,14.57
2022-11-12T15:38:49.893Z,14.54
2022-11-12T15:41:35.235Z,14.54
2022-11-12T15:44:20.871Z,14.37
2022-11-12T15:47:14.266Z,14.32
2022-11-12T15:49:59.497Z,14.33
2022-11-12T15:52:45.565Z,14.30
2022-11-12T15:55:32.933Z,14.21
2022-11-12T15:58:27.118Z,14.06
2022-11-12T16:01:12.868Z,14.02
2022-11-12T16:03:58.549Z,13.94
2022-11-12T16:06:44.145Z,13.87
2022-11-12T16:09:29.759Z,13.79
2022-11-12T16:12:16.046Z,13.57
2022-11-12T16:15:02.384Z,13.35
2022-11-12T16:17:48.850Z,13.29
2022-11-12T16:20:36.465Z,13.39
2022-11-12T16:23:22.324Z,13.43
2022-11-12T16:26:09.443Z,13.32
2022-11-12T16:28:54.905Z,13.18
2022-11-12T16:31:43.001Z,13.18
2022-11-12T16:34:29.480Z,13.21
2022-11-12T16:37:16.291Z,13.11
2022-11-12T16:40:01.931Z,13.04
2022-11-12T16:42:47.331Z,13.14
2022-11-12T16:45:36.251Z,13.15
2022-11-12T16:48:23.002Z,13.10
2022-11-12T16:51:19.076Z,12.92
2022-11-12T16:54:04.976Z,12.82
2022-11-12T16:56:50.624Z,12.82
2022-11-12T16:59:36.095Z,12.84
2022-11-12T17:02:21.613Z,12.74
2022-11-12T17:05:16.473Z,12.84
2022-11-12T17:08:01.733Z,12.87
2022-11-12T17:10:47.324Z,12.73
2022-11-12T17:13:32.969Z,12.66
2022-11-12T17:16:18.659Z,12.65
2022-11-12T17:19:05.939Z,12.74
2022-11-12T17:21:52.023Z,12.75
2022-11-12T17:24:37.428Z,12.84
2022-11-12T17:27:23.432Z,12.92
2022-11-12T17:30:09.358Z,12.92
2022-11-12T17:32:54.857Z,13.01
2022-11-12T17:35:40.400Z,13.03
2022-11-12T17:38:25.652Z,12.92
2022-11-12T17:41:11.816Z,12.97
2022-11-12T17:43:58.704Z,12.88
2022-11-12T17:46:48.539Z,12.90
2022-11-12T17:49:33.847Z,12.85
2022-11-12T17:52:19.269Z,12.89
2022-11-12T17:55:05.169Z,12.82
2022-11-12T17:57:50.870Z,12.82
2022-11-12T18:00:37.822Z,12.85
2022-11-12T18:03:24.164Z,12.93
2022-11-12T18:06:14.852Z,13.16
2022-11-12T18:09:15.448Z,13.15
2022-11-12T18:12:01.214Z,13.19
2022-11-12T18:14:47.104Z,13.19
2022-11-12T18:17:36.422Z,13.26
2022-11-12T18:20:21.680Z,13.20
2022-11-12T18:23:07.166Z,13.22
2022-11-12T18:25:52.790Z,13.27
2022-11-12T18:28:38.140Z,13.24
2022-11-12T18:31:25.355Z,13.30
2022-11-12T18:34:14.399Z,13.31
2022-11-12T18:37:00.133Z,13.29
2022-11-12T18:39:45.552Z,13.19
2022-11-12T18:42:30.996Z,13.09
2022-11-12T18:45:17.177Z,13.13
2022-11-12T18:48:04.670Z,13.12
2022-11-12T18:50:50.906Z,13.10
2022-11-12T18:53:38.131Z,13.15
2022-11-12T18:56:23.453Z,12.78
2022-11-12T18:59:11.639Z,12.91
2022-11-12T19:01:58.171Z,12.86
2022-11-12T19:04:45.629Z,12.68
2022-11-12T19:07:31.732Z,12.82
2022-11-12T19:10:17.494Z,12.92
2022-11-12T19:13:05.119Z,12.85
2022-11-12T19:15:50.681Z,12.93
2022-11-12T19:18:35.841Z,12.81
2022-11-12T19:21:23.719Z,12.84
2022-11-12T19:24:09.405Z,12.90
2022-11-12T19:26:55.017Z,12.85
2022-11-12T19:29:40.285Z,12.94
2022-11-12T19:32:25.872Z,13.03
2022-11-12T19:35:11.294Z,12.99
2022-11-12T19:37:57.029Z,12.79
2022-11-12T19:40:42.707Z,12.74
2022-11-12T19:43:28.629Z,12.81
2022-11-12T19:46:15.113Z,12.79
2022-11-12T19:49:00.573Z,12.99
2022-11-12T19:51:46.153Z,12.98
2022-11-12T19:54:31.392Z,13.05
2022-11-12T19:57:16.986Z,13.08
2022-11-12T20:00:02.280Z,13.04
2022-11-12T20:02:47.876Z,13.08
2022-11-12T20:05:33.807Z,13.04
2022-11-12T20:08:19.084Z,13.19
2022-11-12T20:11:05.178Z,13.19
2022-11-12T20:13:53.721Z,12.89
2022-11-12T20:16:39.624Z,12.97
2022-11-12T20:19:26.429Z,12.95
2022-11-12T20:22:12.101Z,12.93
2022-11-12T20:24:57.956Z,12.95
2022-11-12T20:27:43.510Z,13.00
2022-11-12T20:30:28.735Z,13.01
2022-11-12T20:33:15.413Z,13.11
2022-11-12T20:36:11.865Z,13.15
2022-11-12T20:38:57.319Z,13.14
2022-11-12T20:41:42.878Z,13.14
2022-11-12T20:44:28.320Z,13.13
2022-11-12T20:47:13.997Z,13.11
2022-11-12T20:49:59.167Z,13.17
2022-11-12T20:52:44.701Z,13.29
2022-11-12T20:55:32.586Z,13.27
2022-11-12T20:58:18.150Z,13.22
2022-11-12T21:01:05.782Z,13.03
2022-11-12T21:03:51.370Z,13.02
2022-11-12T21:06:37.264Z,13.08
2022-11-12T21:09:22.907Z,13.09
2022-11-12T21:12:08.505Z,13.21
2022-11-12T21:14:53.651Z,13.18
2022-11-12T21:17:39.260Z,13.27
2022-11-12T21:20:24.745Z,13.22
2022-11-12T21:23:10.277Z,13.08
2022-11-12T21:25:55.812Z,13.07
2022-11-12T21:28:46.106Z,13.12
2022-11-12T21:31:32.599Z,13.19
2022-11-12T21:34:18.168Z,13.24
2022-11-12T21:37:03.837Z,13.12
2022-11-12T21:39:49.563Z,13.07
2022-11-12T21:42:35.168Z,13.09
2022-11-12T21:45:20.827Z,13.14
2022-11-12T21:48:06.304Z,13.10
2022-11-12T21:50:51.728Z,13.13
2022-11-12T21:53:36.775Z,13.15
2022-11-12T21:56:23.111Z,13.12
2022-11-12T21:59:08.325Z,13.18
2022-11-12T22:01:53.892Z,13.07
2022-11-12T22:04:39.621Z,13.08
2022-11-12T22:07:25.098Z,12.84
2022-11-12T22:10:10.696Z,12.80
2022-11-12T22:13:20.201Z,12.70
2022-11-12T22:16:19.349Z,12.81
2022-11-12T22:19:04.765Z,12.88
2022-11-12T22:21:50.390Z,12.94
2022-11-12T22:24:35.749Z,12.99
2022-11-12T22:27:21.431Z,12.81
2022-11-12T22:30:07.476Z,12.81
2022-11-12T22:32:53.016Z,12.68
2022-11-12T22:35:38.317Z,12.47
2022-11-12T22:38:23.755Z,12.47
2022-11-12T22:41:20.382Z,12.59
2022-11-12T22:44:05.796Z,12.47
2022-11-12T22:46:51.326Z,12.37
2022-11-12T22:49:36.639Z,12.49
2022-11-12T22:52:22.211Z,12.50
2022-11-12T22:55:08.286Z,12.39
2022-11-12T22:57:54.034Z,12.47
2022-11-12T23:00:40.909Z,12.53
2022-11-12T23:03:26.574Z,12.37
2022-11-12T23:06:12.356Z,12.27
2022-11-12T23:08:59.766Z,12.34
2022-11-12T23:11:45.201Z,12.38
2022-11-12T23:14:30.580Z,12.46
2022-11-12T23:17:16.160Z,12.31
2022-11-12T23:20:01.799Z,12.33
2022-11-12T23:22:47.061Z,12.16
2022-11-12T23:25:36.278Z,12.19
2022-11-12T23:28:21.800Z,12.23
2022-11-12T23:31:18.410Z,12.08
2022-11-12T23:34:04.873Z,12.17
2022-11-12T23:36:50.038Z,12.20
2022-11-12T23:39:35.407Z,12.12
2022-11-12T23:42:20.903Z,12.17
2022-11-12T23:45:07.009Z,12.25
2022-11-12T23:47:52.751Z,12.17
2022-11-12T23:50:38.099Z,11.81
2022-11-12T23:53:23.512Z,11.90
2022-11-12T23:56:11.509Z,11.92
2022-11-12T23:58:57.098Z,11.96
